Time;durP1;ratioP1;P1;durP2;ratioP2;P2;SDS_P1;SDS_P2;PMS_P1;PMS_P2;Temp;Humidity;BMP_temperature;BMP_pressure;BME280_temperature;BME280_humidity;BME280_pressure;Samples;Min_cycle;Max_cycle;Signal;HPM_P1;HPM_P2
2023/06/20 00:00:15;;;;;;;10.20;7.50;;;;;;;26.94;65.83;100837.06;5054101;28;20057;-79
2023/06/20 00:02:43;;;;;;;12.98;8.00;;;;;;;26.93;65.19;100836.25;5054474;28;20053;-79
2023/06/20 00:05:11;;;;;;;9.43;7.53;;;;;;;26.80;65.38;100838.53;5054700;28;20400;-79
2023/06/20 00:07:39;;;;;;;9.93;7.38;;;;;;;26.76;65.41;100842.47;5071056;28;20052;-79
2023/06/20 00:10:08;;;;;;;7.75;6.97;;;;;;;26.85;64.90;100845.78;5054499;28;20045;-79
2023/06/20 00:12:36;;;;;;;8.90;7.13;;;;;;;26.93;64.81;100849.50;5054078;28;20411;-79
2023/06/20 00:15:05;;;;;;;9.05;6.72;;;;;;;26.81;65.58;100834.53;5037816;28;20060;-79
2023/06/20 00:17:33;;;;;;;8.73;7.82;;;;;;;26.73;65.67;100844.06;5062955;28;20487;-79
2023/06/20 00:20:06;;;;;;;12.20;7.90;;;;;;;26.90;64.63;100844.63;5074300;28;20067;-79
2023/06/20 00:22:35;;;;;;;7.93;6.93;;;;;;;26.88;65.16;100845.00;5073980;28;20048;-79
2023/06/20 00:25:04;;;;;;;10.23;7.85;;;;;;;26.88;65.29;100842.19;5057732;28;20044;-79
2023/06/20 00:27:32;;;;;;;9.20;7.53;;;;;;;26.82;65.51;100850.16;5074449;28;20040;-79
2023/06/20 00:30:00;;;;;;;8.23;6.80;;;;;;;26.71;66.03;100838.03;5074471;28;20055;-79
2023/06/20 00:32:29;;;;;;;10.75;7.47;;;;;;;26.75;65.39;100852.09;5058076;28;20071;-79
2023/06/20 00:34:58;;;;;;;8.05;6.95;;;;;;;26.55;65.77;100839.06;5074065;28;20048;-79
2023/06/20 00:37:27;;;;;;;9.05;6.85;;;;;;;26.65;66.49;100837.59;5073949;28;20044;-79
2023/06/20 00:39:55;;;;;;;9.27;7.65;;;;;;;26.70;66.53;100840.00;5073990;28;20063;-80
2023/06/20 00:42:24;;;;;;;8.77;6.78;;;;;;;26.63;66.95;100844.78;5074226;28;20545;-79
2023/06/20 00:44:52;;;;;;;10.23;7.65;;;;;;;26.47;67.33;100848.59;5060621;28;20048;-79
2023/06/20 00:47:20;;;;;;;10.52;7.63;;;;;;;26.17;68.67;100833.41;5077827;28;20502;-80
2023/06/20 00:49:50;;;;;;;9.77;7.18;;;;;;;26.10;69.20;100846.53;5061630;28;20066;-80
2023/06/20 00:52:22;;;;;;;9.23;7.43;;;;;;;26.00;69.48;100840.41;5078054;28;20091;-80
2023/06/20 00:54:50;;;;;;;13.68;7.60;;;;;;;25.91;69.24;100839.88;5078121;28;20398;-80
2023/06/20 00:57:20;;;;;;;8.02;6.53;;;;;;;26.09;67.70;100817.66;5077687;28;20059;-80
2023/06/20 00:59:50;;;;;;;8.77;7.22;;;;;;;26.26;67.51;100821.09;5061382;28;20048;-79
2023/06/20 01:02:20;;;;;;;8.13;6.90;;;;;;;26.21;67.78;100822.22;5061343;28;20044;-80
2023/06/20 01:04:49;;;;;;;9.15;7.72;;;;;;;25.97;69.52;100821.53;5061740;28;20387;-79
2023/06/20 01:07:33;;;;;;;9.82;7.72;;;;;;;25.85;70.02;100825.38;5077761;28;20044;-79
2023/06/20 01:10:25;;;;;;;9.45;8.50;;;;;;;25.87;69.84;100823.03;5061317;28;20059;-79
2023/06/20 01:13:05;;;;;;;10.68;8.20;;;;;;;25.87;70.76;100816.59;5061105;28;20482;-79
2023/06/20 01:15:52;;;;;;;11.63;8.93;;;;;;;25.90;70.84;100818.63;5077645;28;20394;-79
2023/06/20 01:18:25;;;;;;;11.25;8.98;;;;;;;26.07;70.10;100814.44;5077192;28;20055;-79
2023/06/20 01:21:00;;;;;;;13.02;9.82;;;;;;;26.23;69.24;100811.47;5077356;28;20052;-79
2023/06/20 01:23:39;;;;;;;14.70;10.98;;;;;;;26.16;69.44;100812.16;5077240;28;20416;-79
2023/06/20 01:26:20;;;;;;;14.45;10.48;;;;;;;25.87;70.98;100811.00;5060599;28;20091;-79
2023/06/20 01:28:56;;;;;;;14.75;11.35;;;;;;;25.89;71.19;100819.81;5060660;28;20055;-79
2023/06/20 01:31:32;;;;;;;15.57;11.10;;;;;;;25.69;71.46;100825.56;5076906;28;20040;-79
2023/06/20 01:34:08;;;;;;;15.77;11.00;;;;;;;25.70;72.23;100821.56;5061069;28;20048;-79
2023/06/20 01:36:39;;;;;;;17.52;10.40;;;;;;;25.88;71.67;100823.81;5077130;28;20380;-80
2023/06/20 01:39:14;;;;;;;10.77;9.00;;;;;;;25.95;70.97;100820.31;5060153;28;20063;-79
2023/06/20 01:41:46;;;;;;;12.85;8.82;;;;;;;26.01;70.41;100811.16;5060864;28;20057;-79
2023/06/20 01:44:15;;;;;;;12.73;7.93;;;;;;;26.03;69.24;100822.81;5060191;28;20044;-79
2023/06/20 01:46:46;;;;;;;9.60;8.13;;;;;;;25.60;70.45;100822.22;5077102;28;20048;-79
2023/06/20 01:49:16;;;;;;;11.30;8.75;;;;;;;25.48;71.02;100824.03;5076548;28;20044;-79
2023/06/20 01:51:45;;;;;;;10.65;8.80;;;;;;;25.39;71.86;100817.91;5059771;28;20487;-79
2023/06/20 01:54:16;;;;;;;13.45;8.52;;;;;;;25.66;70.92;100817.13;5076108;28;20055;-79
2023/06/20 01:56:47;;;;;;;11.00;8.80;;;;;;;25.40;72.02;100805.50;5076873;28;20048;-79
2023/06/20 01:59:17;;;;;;;13.40;8.65;;;;;;;25.53;71.96;100802.47;5076661;28;20052;-79
2023/06/20 02:01:48;;;;;;;12.02;8.63;;;;;;;25.60;70.96;100803.44;5060267;28;20522;-79
2023/06/20 02:04:17;;;;;;;10.63;8.27;;;;;;;25.35;71.75;100795.44;5076756;28;20052;-79
2023/06/20 02:06:47;;;;;;;11.98;7.85;;;;;;;25.49;71.91;100799.63;5059979;28;20055;-79
2023/06/20 02:09:16;;;;;;;9.52;8.07;;;;;;;25.25;71.95;100798.06;5076566;28;20066;-79
2023/06/20 02:11:46;;;;;;;13.30;8.25;;;;;;;25.53;72.12;100805.28;5059957;28;20052;-79
2023/06/20 02:14:15;;;;;;;10.43;8.02;;;;;;;25.48;72.09;100798.03;5076658;28;20491;-79
2023/06/20 02:16:47;;;;;;;9.60;8.10;;;;;;;25.53;71.67;100797.72;5076265;28;20076;-79
2023/06/20 02:19:15;;;;;;;9.30;7.80;;;;;;;25.38;71.97;100798.66;5059681;28;20055;-79
2023/06/20 02:21:46;;;;;;;10.35;8.15;;;;;;;25.43;72.30;100798.34;5076301;28;20048;-80
2023/06/20 02:24:20;;;;;;;10.10;7.82;;;;;;;25.04;73.80;100785.34;5075988;28;20051;-79
2023/06/20 02:26:51;;;;;;;10.35;8.30;;;;;;;24.89;74.73;100793.50;5059705;28;20383;-80
2023/06/20 02:29:22;;;;;;;8.57;7.57;;;;;;;25.17;74.11;100791.56;5076233;28;20529;-79
2023/06/20 02:31:51;;;;;;;8.93;7.97;;;;;;;25.31;73.73;100800.16;5058916;28;20064;-79
2023/06/20 02:34:21;;;;;;;9.55;7.22;;;;;;;25.34;72.77;100802.22;5075876;28;20040;-79
2023/06/20 02:36:52;;;;;;;13.48;8.35;;;;;;;25.32;73.33;100812.19;5059708;28;20044;-79
2023/06/20 02:39:20;;;;;;;11.13;7.95;;;;;;;25.40;72.61;100811.09;5075809;28;20398;-79
2023/06/20 02:41:48;;;;;;;9.82;7.80;;;;;;;25.40;72.44;100821.53;5075942;28;20044;-79
2023/06/20 02:44:17;;;;;;;12.05;8.38;;;;;;;25.43;72.48;100818.75;5059733;28;20048;-79
2023/06/20 02:46:59;;;;;;;11.70;8.07;;;;;;;25.23;73.27;100809.66;5076072;28;20055;-79
2023/06/20 02:49:54;;;;;;;10.13;8.57;;;;;;;24.94;74.48;100801.56;5075604;28;20053;-79
2023/06/20 02:53:15;;;;;;;10.52;8.75;;;;;;;24.97;74.02;100825.22;5073788;28;20048;-79
2023/06/20 02:55:48;;;;;;;13.07;8.23;;;;;;;24.73;75.58;100817.97;5066646;28;20040;-79
2023/06/20 02:58:19;;;;;;;;;;;;;;;24.75;76.16;100821.19;5076748;28;20075;-79
2023/06/20 03:00:50;;;;;;;10.38;8.57;;;;;;;24.91;75.35;100823.91;5075109;28;19920;-79
2023/06/20 03:03:34;;;;;;;9.68;8.63;;;;;;;25.05;74.71;100828.94;5075328;28;20044;-79
2023/06/20 03:06:06;;;;;;;12.18;8.73;;;;;;;24.69;76.62;100834.69;5074654;28;20044;-79
2023/06/20 03:08:41;;;;;;;11.55;9.07;;;;;;;24.58;77.07;100842.88;5058811;28;20052;-79
2023/06/20 03:11:10;;;;;;;10.95;8.73;;;;;;;24.69;76.38;100845.91;5058546;28;20060;-79
2023/06/20 03:13:39;;;;;;;10.13;8.75;;;;;;;24.74;76.35;100827.97;5075405;28;20048;-79
2023/06/20 03:16:08;;;;;;;10.93;8.55;;;;;;;24.90;75.58;100834.31;5058860;28;20071;-79
2023/06/20 03:18:37;;;;;;;13.20;9.60;;;;;;;25.01;74.94;100848.47;5058819;28;20525;-79
2023/06/20 03:21:07;;;;;;;13.27;9.50;;;;;;;24.99;74.97;100852.84;5058895;28;20052;-80
2023/06/20 03:23:56;;;;;;;16.13;9.65;;;;;;;24.79;75.60;100850.06;5077619;28;20052;-78
2023/06/20 03:26:25;;;;;;;11.02;9.38;;;;;;;24.60;77.10;100853.69;5079800;28;20043;-79
2023/06/20 03:28:53;;;;;;;12.15;9.73;;;;;;;24.56;77.54;100865.66;5079607;28;20044;-79
2023/06/20 03:31:21;;;;;;;11.02;8.93;;;;;;;24.50;77.49;100867.13;5064173;28;20056;-79
2023/06/20 03:33:50;;;;;;;12.35;9.68;;;;;;;24.47;77.88;100867.03;5092822;28;20051;-78
2023/06/20 03:36:18;;;;;;;12.27;9.80;;;;;;;24.45;77.62;100861.81;5086229;28;20054;-79
2023/06/20 03:38:46;;;;;;;14.38;9.60;;;;;;;24.23;79.07;100866.97;5064551;28;20518;-79
2023/06/20 03:41:16;;;;;;;10.75;8.80;;;;;;;24.31;78.17;100867.94;5081209;28;20044;-78
2023/06/20 03:43:44;;;;;;;14.98;9.50;;;;;;;24.21;78.71;100868.50;5064682;28;20044;-78
2023/06/20 03:46:14;;;;;;;11.65;9.68;;;;;;;24.34;78.59;100886.75;5080921;28;20055;-79
2023/06/20 03:48:42;;;;;;;12.60;9.73;;;;;;;24.16;79.98;100898.38;5081262;28;20055;-79
2023/06/20 03:51:11;;;;;;;15.75;10.38;;;;;;;24.19;79.87;100894.03;5063533;28;20513;-79
2023/06/20 03:53:39;;;;;;;14.48;9.68;;;;;;;24.28;78.82;100896.63;5080679;28;20380;-79
2023/06/20 03:56:08;;;;;;;13.77;9.18;;;;;;;24.24;79.07;100895.75;5081285;28;20044;-78
2023/06/20 03:58:37;;;;;;;10.90;9.35;;;;;;;24.45;78.38;100897.34;5081234;28;20048;-79
2023/06/20 04:01:06;;;;;;;12.60;9.90;;;;;;;24.25;79.33;100894.56;5080745;28;20138;-79
2023/06/20 04:03:34;;;;;;;11.02;9.07;;;;;;;24.33;78.33;100890.72;5065590;28;20045;-78
2023/06/20 04:06:04;;;;;;;10.30;8.85;;;;;;;24.59;77.29;100894.06;5069213;28;20048;-79
2023/06/20 04:08:32;;;;;;;12.80;9.80;;;;;;;24.36;77.93;100900.38;5086250;28;20056;-79
2023/06/20 04:11:01;;;;;;;12.57;9.45;;;;;;;24.45;77.10;100902.97;5081754;28;20048;-79
2023/06/20 04:13:29;;;;;;;16.80;9.85;;;;;;;24.37;77.34;100902.81;5087678;28;20048;-78
2023/06/20 04:16:03;;;;;;;12.60;9.52;;;;;;;24.38;77.70;100895.22;5065096;28;20062;-80
2023/06/20 04:18:36;;;;;;;13.38;9.43;;;;;;;24.24;78.57;100890.16;5084760;28;20052;-79
2023/06/20 04:21:04;;;;;;;13.88;9.98;;;;;;;24.31;78.66;100893.09;5067659;28;20052;-78
2023/06/20 04:23:35;;;;;;;13.02;9.50;;;;;;;24.50;77.75;100889.50;5084340;28;20491;-78
2023/06/20 04:26:07;;;;;;;15.65;9.93;;;;;;;24.39;78.45;100882.88;5086548;28;20044;-79
2023/06/20 04:28:35;;;;;;;14.02;10.43;;;;;;;24.56;77.86;100893.63;5084881;28;20052;-78
2023/06/20 04:31:03;;;;;;;17.35;11.18;;;;;;;24.49;78.26;100899.03;5067909;28;20051;-79
2023/06/20 04:33:32;;;;;;;14.45;10.95;;;;;;;24.62;77.78;100885.72;5067080;28;20044;-79
2023/06/20 04:36:00;;;;;;;17.02;10.68;;;;;;;24.51;78.71;100879.09;5066683;28;20040;-78
2023/06/20 04:38:33;;;;;;;17.15;11.95;;;;;;;24.57;78.86;100888.81;5066255;28;20044;-79
2023/06/20 04:41:02;;;;;;;20.33;12.68;;;;;;;24.58;79.35;100876.44;5062691;28;20064;-79
2023/06/20 04:43:30;;;;;;;18.33;13.38;;;;;;;24.80;78.51;100876.88;5062746;28;20525;-78
2023/06/20 04:45:59;;;;;;;19.83;13.95;;;;;;;24.86;78.99;100875.41;5062570;28;20048;-78
2023/06/20 04:48:35;;;;;;;21.67;14.88;;;;;;;24.85;79.30;100862.59;5062447;28;20059;-78
2023/06/20 04:51:08;;;;;;;24.73;17.45;;;;;;;25.01;78.87;100861.66;5062398;28;20406;-77
2023/06/20 04:53:36;;;;;;;26.17;16.77;;;;;;;25.06;78.63;100867.78;5062129;28;20381;-76
2023/06/20 04:56:05;;;;;;;27.00;17.15;;;;;;;25.35;77.61;100885.06;5045414;28;20048;-79
2023/06/20 04:58:33;;;;;;;27.13;17.00;;;;;;;25.50;76.63;100872.09;5060780;28;20498;-79
2023/06/20 05:01:01;;;;;;;25.90;17.52;;;;;;;25.56;75.54;100888.63;5061852;28;20363;-79
2023/06/20 05:03:30;;;;;;;25.85;16.45;;;;;;;25.39;77.92;100881.50;5094474;28;20055;-80
2023/06/20 05:05:58;;;;;;;23.65;15.95;;;;;;;25.34;77.28;100877.84;5061225;28;20055;-78
2023/06/20 05:08:26;;;;;;;22.45;15.63;;;;;;;25.57;76.24;100893.03;5078747;28;20530;-78
2023/06/20 05:10:56;;;;;;;22.38;14.95;;;;;;;25.69;75.43;100895.63;5060836;28;20047;-80
2023/06/20 05:13:24;;;;;;;27.10;15.77;;;;;;;25.80;75.04;100909.78;5077926;28;20052;-79
2023/06/20 05:15:52;;;;;;;21.85;15.30;;;;;;;25.87;74.94;100909.91;5058639;28;20051;-78
2023/06/20 05:18:20;;;;;;;22.55;15.68;;;;;;;25.84;74.51;100907.03;5057764;28;20055;-79
2023/06/20 05:20:50;;;;;;;21.02;14.65;;;;;;;25.79;74.98;100898.97;5060202;28;20048;-78
2023/06/20 05:23:19;;;;;;;24.05;15.80;;;;;;;25.76;75.25;100903.34;5060877;28;20052;-78
2023/06/20 05:25:47;;;;;;;21.55;15.10;;;;;;;25.82;75.17;100912.22;5059510;28;20040;-77
2023/06/20 05:28:16;;;;;;;22.40;16.02;;;;;;;25.81;75.68;100896.59;5057722;28;20522;-83
2023/06/20 05:30:47;;;;;;;23.63;16.77;;;;;;;25.90;75.19;100919.53;5071989;28;20045;-82
2023/06/20 05:33:16;;;;;;;21.38;15.25;;;;;;;25.98;75.26;100903.63;5057187;28;20048;-80
2023/06/20 05:35:46;;;;;;;22.75;15.93;;;;;;;26.13;74.89;100904.66;5059368;28;20063;-77
2023/06/20 05:38:15;;;;;;;26.15;17.55;;;;;;;26.12;76.17;100905.84;5076696;28;20043;-78
2023/06/20 05:40:43;;;;;;;23.88;16.27;;;;;;;26.14;75.25;100909.06;5059724;28;20056;-78
2023/06/20 05:43:12;;;;;;;24.65;15.85;;;;;;;26.19;74.75;100905.13;5077350;28;20466;-81
2023/06/20 05:45:41;;;;;;;26.35;18.83;;;;;;;26.18;75.21;100904.31;5077316;28;20055;-80
2023/06/20 05:48:11;;;;;;;25.38;16.88;;;;;;;26.31;73.45;100907.72;5060987;28;20052;-78
2023/06/20 05:50:43;;;;;;;23.23;17.42;;;;;;;26.27;72.84;100902.06;5059849;28;20052;-84
2023/06/20 05:53:12;;;;;;;25.55;17.35;;;;;;;26.28;72.70;100903.69;5060849;28;20067;-80
2023/06/20 05:55:42;;;;;;;27.83;17.63;;;;;;;26.40;72.25;100905.44;5060104;28;20052;-80
2023/06/20 05:58:10;;;;;;;24.15;17.50;;;;;;;26.58;72.22;100904.84;5077388;28;20047;-80
2023/06/20 06:00:38;;;;;;;25.23;17.35;;;;;;;26.48;71.63;100911.94;5076356;28;20399;-80
2023/06/20 06:03:09;;;;;;;27.75;17.52;;;;;;;26.53;71.12;100902.38;5060842;28;20111;-80
2023/06/20 06:05:41;;;;;;;28.73;17.00;;;;;;;26.59;70.76;100911.28;5077388;28;20044;-81
2023/06/20 06:08:12;;;;;;;23.90;16.48;;;;;;;26.68;70.35;100894.91;5076679;28;20052;-81
2023/06/20 06:10:41;;;;;;;24.95;16.92;;;;;;;26.75;70.72;100903.44;5049271;28;20052;-74
2023/06/20 06:13:10;;;;;;;27.80;18.38;;;;;;;26.78;68.43;100918.72;5039891;28;20059;-74
2023/06/20 06:15:39;;;;;;;25.48;18.25;;;;;;;26.78;70.56;100918.72;5064012;28;20048;-72
2023/06/20 06:18:26;;;;;;;27.83;18.08;;;;;;;26.83;68.75;100916.34;5062789;28;20048;-70
2023/06/20 06:20:54;;;;;;;25.63;17.30;;;;;;;26.92;68.37;100913.25;5075998;28;20067;-69
2023/06/20 06:23:23;;;;;;;26.05;17.05;;;;;;;27.10;67.39;100907.84;5059516;28;20044;-70
2023/06/20 06:25:52;;;;;;;24.85;17.52;;;;;;;27.13;66.99;100908.25;5075371;28;20055;-70
2023/06/20 06:28:22;;;;;;;27.58;18.05;;;;;;;27.13;66.70;100900.66;5075466;28;20379;-70
2023/06/20 06:30:51;;;;;;;26.83;18.55;;;;;;;27.02;68.12;100908.94;5059071;28;20052;-70
2023/06/20 06:33:23;;;;;;;27.55;17.73;;;;;;;27.14;65.61;100907.88;5074610;28;20048;-72
2023/06/20 06:35:55;;;;;;;26.98;17.60;;;;;;;27.20;67.09;100909.13;5074527;28;20501;-71
2023/06/20 06:38:26;;;;;;;;;;;;;;;27.49;65.40;100917.00;5076034;28;20048;-70
2023/06/20 06:40:55;;;;;;;23.88;17.30;;;;;;;27.67;65.26;100919.16;5080081;28;19931;-72
2023/06/20 06:43:25;;;;;;;23.13;17.05;;;;;;;27.89;64.93;100925.72;5076760;28;20074;-71
2023/06/20 06:45:56;;;;;;;23.63;16.05;;;;;;;28.02;63.52;100920.59;5074834;28;20048;-71
2023/06/20 06:48:25;;;;;;;23.30;15.98;;;;;;;28.15;65.49;100927.50;5074785;28;20064;-71
2023/06/20 06:50:54;;;;;;;22.88;14.60;;;;;;;28.26;62.89;100924.75;5074826;28;20051;-71
2023/06/20 06:53:24;;;;;;;28.40;17.55;;;;;;;28.27;63.16;100923.59;5069532;28;20052;-70
2023/06/20 06:55:53;;;;;;;22.95;16.95;;;;;;;28.51;62.08;100928.91;5054866;28;20502;-70
2023/06/20 06:58:21;;;;;;;26.00;16.42;;;;;;;28.49;62.56;100925.69;5039142;28;20061;-70
2023/06/20 07:00:50;;;;;;;26.15;18.75;;;;;;;28.44;62.38;100936.09;5054858;28;20081;-71
2023/06/20 07:03:19;;;;;;;25.23;17.48;;;;;;;28.10;63.23;100925.06;5055298;28;20060;-71
2023/06/20 07:05:48;;;;;;;26.90;18.73;;;;;;;28.30;63.31;100934.03;5055725;28;20040;-71
2023/06/20 07:08:17;;;;;;;23.00;16.38;;;;;;;28.49;62.47;100937.72;5039062;28;20045;-71
2023/06/20 07:10:47;;;;;;;26.75;17.52;;;;;;;28.47;62.60;100936.50;5038912;28;20044;-72
2023/06/20 07:13:16;;;;;;;23.83;17.17;;;;;;;28.57;63.09;100932.94;5054683;28;20079;-71
2023/06/20 07:15:44;;;;;;;28.73;15.60;;;;;;;28.72;61.10;100947.09;5054984;28;20052;-72
2023/06/20 07:18:13;;;;;;;22.67;16.67;;;;;;;28.80;61.62;100943.06;5070051;28;20048;-73
2023/06/20 07:20:42;;;;;;;26.60;17.98;;;;;;;28.78;61.26;100937.03;5075152;28;20047;-73
2023/06/20 07:23:11;;;;;;;27.33;16.92;;;;;;;28.95;61.14;100943.94;5074747;28;20055;-74
2023/06/20 07:25:39;;;;;;;26.73;17.23;;;;;;;28.88;61.85;100944.72;5058627;28;20048;-73
2023/06/20 07:28:11;;;;;;;22.75;16.10;;;;;;;28.97;61.75;100956.44;5058391;28;20052;-75
2023/06/20 07:30:41;;;;;;;26.25;17.98;;;;;;;28.95;59.21;100952.41;5075247;28;20044;-74
2023/06/20 07:33:10;;;;;;;26.90;17.73;;;;;;;29.09;59.68;100946.00;5074912;28;20043;-76
2023/06/20 07:35:39;;;;;;;24.30;17.30;;;;;;;29.12;61.38;100956.44;5059046;28;20075;-73
2023/06/20 07:38:08;;;;;;;29.88;18.52;;;;;;;28.99;61.96;100952.41;5058829;28;20062;-74
2023/06/20 07:40:37;;;;;;;22.48;16.58;;;;;;;29.00;60.48;100948.38;5074324;28;20363;-71
2023/06/20 07:43:08;;;;;;;26.55;17.63;;;;;;;29.30;60.05;100945.22;5074460;28;20060;-72
2023/06/20 07:45:37;;;;;;;24.10;17.58;;;;;;;29.09;60.92;100960.84;5057305;28;20052;-71
2023/06/20 07:48:06;;;;;;;25.15;16.38;;;;;;;29.02;61.65;100951.63;5091897;28;20345;-72
2023/06/20 07:50:34;;;;;;;21.00;14.18;;;;;;;29.30;60.70;100952.84;5090871;28;20063;-72
2023/06/20 07:53:03;;;;;;;24.58;16.17;;;;;;;29.58;60.02;100954.91;5091844;28;20395;-70
2023/06/20 07:55:33;;;;;;;23.10;15.20;;;;;;;29.84;58.97;100952.06;5073566;28;20056;-71
2023/06/20 07:58:02;;;;;;;25.23;15.75;;;;;;;29.75;59.57;100949.66;5091437;28;20044;-71
2023/06/20 08:00:30;;;;;;;21.30;15.82;;;;;;;30.00;58.44;100951.66;5090309;28;20055;-70
2023/06/20 08:02:59;;;;;;;24.38;16.08;;;;;;;29.86;58.27;100952.47;5091644;28;20066;-71
2023/06/20 08:05:27;;;;;;;20.60;15.32;;;;;;;29.96;58.47;100939.56;5091545;28;20044;-70
2023/06/20 08:07:56;;;;;;;21.45;15.00;;;;;;;30.13;57.61;100955.66;5091725;28;20131;-72
2023/06/20 08:10:24;;;;;;;22.90;15.75;;;;;;;30.15;57.37;100944.75;5092063;28;20048;-72
2023/06/20 08:12:55;;;;;;;26.38;17.83;;;;;;;29.98;57.23;100954.88;5091865;28;20048;-71
2023/06/20 08:15:23;;;;;;;25.17;17.20;;;;;;;29.84;59.48;100955.69;5091562;28;20052;-72
2023/06/20 08:17:52;;;;;;;19.08;15.38;;;;;;;29.82;58.29;100949.66;5092256;28;20051;-72
2023/06/20 08:20:22;;;;;;;21.67;15.85;;;;;;;29.86;58.49;100952.47;5091794;28;20048;-73
2023/06/20 08:22:53;;;;;;;21.08;14.02;;;;;;;29.97;57.76;100958.91;5091006;28;20052;-72
2023/06/20 08:25:22;;;;;;;19.98;15.27;;;;;;;30.13;57.10;100960.50;5091877;28;20052;-73
2023/06/20 08:27:51;;;;;;;23.33;16.27;;;;;;;30.33;57.72;100951.56;5091942;28;20048;-72
2023/06/20 08:30:40;;;;;;;18.15;13.75;;;;;;;30.37;56.66;100952.34;5091665;28;20052;-73
2023/06/20 08:33:08;;;;;;;16.25;12.02;;;;;;;30.57;54.41;100953.50;5092138;28;20063;-72
2023/06/20 08:35:37;;;;;;;17.40;11.63;;;;;;;30.92;51.39;100958.56;5091842;28;20052;-72
2023/06/20 08:38:05;;;;;;;13.88;10.75;;;;;;;31.24;51.17;100969.66;5092274;28;20078;-73
2023/06/20 08:40:34;;;;;;;13.05;10.27;;;;;;;31.42;50.76;100973.63;5091560;28;20048;-73
2023/06/20 08:43:06;;;;;;;15.55;12.27;;;;;;;31.09;50.72;100965.34;5091806;28;20102;-73
2023/06/20 08:45:37;;;;;;;18.70;13.32;;;;;;;31.46;50.76;100969.53;5085095;28;20052;-72
2023/06/20 08:48:05;;;;;;;19.83;13.43;;;;;;;31.47;51.36;100959.03;5070255;28;20040;-72
2023/06/20 08:50:37;;;;;;;22.77;15.20;;;;;;;31.47;53.33;100964.69;5075784;28;20048;-72
2023/06/20 08:53:09;;;;;;;18.33;12.35;;;;;;;31.61;52.22;100952.44;5097074;28;20032;-73
2023/06/20 08:55:40;;;;;;;16.02;11.73;;;;;;;31.75;51.14;100968.47;5072950;28;20407;-72
2023/06/20 08:58:09;;;;;;;14.43;11.25;;;;;;;31.93;49.10;100956.22;5076101;28;20048;-72
2023/06/20 09:00:41;;;;;;;14.75;11.05;;;;;;;32.18;48.80;100965.25;5074795;28;20417;-70
2023/06/20 09:03:10;;;;;;;14.70;10.90;;;;;;;32.14;47.21;100975.81;5081794;28;20059;-72
2023/06/20 09:05:42;;;;;;;18.83;13.07;;;;;;;32.38;47.93;100975.13;5077730;28;20040;-74
2023/06/20 09:08:17;;;;;;;16.23;12.00;;;;;;;32.40;47.22;100972.69;5076352;28;20063;-74
2023/06/20 09:10:45;;;;;;;15.82;11.15;;;;;;;32.33;48.03;100973.56;5078364;28;20052;-73
2023/06/20 09:13:14;;;;;;;18.00;12.57;;;;;;;32.46;49.72;100967.38;5075451;28;20503;-76
2023/06/20 09:15:43;;;;;;;14.98;11.73;;;;;;;32.15;47.97;100962.44;5088248;28;20066;-73
2023/06/20 09:18:14;;;;;;;14.48;9.68;;;;;;;32.25;47.66;100957.91;5081803;28;20045;-73
2023/06/20 09:20:43;;;;;;;15.43;11.40;;;;;;;32.11;49.60;100970.97;5085404;28;20071;-74
2023/06/20 09:23:26;;;;;;;16.30;11.48;;;;;;;32.24;47.95;100976.09;5081627;28;20059;-74
2023/06/20 09:25:56;;;;;;;13.05;9.65;;;;;;;31.98;48.29;100959.41;5073685;28;20045;-74
2023/06/20 09:28:32;;;;;;;12.05;10.27;;;;;;;32.24;46.01;100970.44;5083418;28;20071;-73
2023/06/20 09:31:02;;;;;;;11.52;8.77;;;;;;;32.66;45.48;100964.69;5094932;28;20052;-72
2023/06/20 09:33:31;;;;;;;17.50;12.48;;;;;;;32.76;46.65;100968.63;5092833;28;20075;-72
2023/06/20 09:36:17;;;;;;;17.20;11.90;;;;;;;32.43;47.21;100963.38;5078524;28;20075;-72
2023/06/20 09:38:52;;;;;;;15.30;12.35;;;;;;;32.76;45.89;100951.63;5076229;28;20044;-72
2023/06/20 09:41:21;;;;;;;12.65;9.95;;;;;;;32.76;46.35;100957.28;5081654;28;20052;-72
2023/06/20 09:43:49;;;;;;;14.10;8.57;;;;;;;32.82;47.42;100959.22;5078586;28;20059;-72
2023/06/20 09:46:18;;;;;;;13.88;10.98;;;;;;;32.52;47.91;100952.34;5092988;28;20056;-72
2023/06/20 09:48:47;;;;;;;16.23;10.40;;;;;;;32.52;46.58;100954.34;5093942;28;20052;-72
2023/06/20 09:51:16;;;;;;;14.75;11.48;;;;;;;32.35;47.28;100953.34;5092908;28;20059;-72
2023/06/20 09:53:57;;;;;;;17.02;10.73;;;;;;;32.63;46.66;100946.53;5093929;28;20048;-73
2023/06/20 09:56:31;;;;;;;13.35;10.80;;;;;;;32.94;44.48;100952.16;5087842;28;20048;-74
2023/06/20 09:59:02;;;;;;;17.15;11.35;;;;;;;32.53;46.01;100947.47;5094348;28;20052;-72
2023/06/20 10:01:43;;;;;;;9.75;8.73;;;;;;;33.01;45.29;100950.47;5094851;28;20047;-72
2023/06/20 10:04:13;;;;;;;11.43;9.38;;;;;;;33.20;44.25;100960.31;5094763;28;20048;-73
2023/06/20 10:06:41;;;;;;;12.70;10.20;;;;;;;32.88;46.57;100948.19;5061676;28;20048;-72
2023/06/20 10:09:10;;;;;;;10.60;8.50;;;;;;;32.89;45.39;100941.28;5094450;28;20048;-72
2023/06/20 10:11:41;;;;;;;13.73;11.02;;;;;;;32.50;45.97;100934.94;5093857;28;20048;-72
2023/06/20 10:14:14;;;;;;;13.13;10.20;;;;;;;32.25;46.94;100938.88;5076613;28;20398;-72
2023/06/20 10:16:51;;;;;;;12.40;9.82;;;;;;;32.52;45.46;100940.19;5091951;28;20059;-73
2023/06/20 10:19:20;;;;;;;11.27;9.05;;;;;;;32.52;44.75;100929.69;5075735;28;20044;-73
2023/06/20 10:21:54;;;;;;;12.57;9.60;;;;;;;33.05;44.42;100931.38;5093801;28;20395;-73
2023/06/20 10:24:28;;;;;;;12.35;9.15;;;;;;;32.99;44.47;100931.09;5075747;28;20056;-73
2023/06/20 10:27:00;;;;;;;11.30;9.35;;;;;;;33.29;44.58;100923.72;5092386;28;20057;-73
2023/06/20 10:29:29;;;;;;;14.65;10.32;;;;;;;33.55;44.23;100928.97;5075480;28;20044;-73
2023/06/20 10:32:05;;;;;;;11.48;9.50;;;;;;;33.29;44.24;100925.75;5091848;28;20040;-74
2023/06/20 10:34:36;;;;;;;14.32;10.63;;;;;;;33.16;43.81;100936.88;5093429;28;20067;-74
2023/06/20 10:37:25;;;;;;;13.90;11.98;;;;;;;32.49;46.01;100938.22;5093206;28;20048;-73
2023/06/20 10:39:58;;;;;;;17.25;12.98;;;;;;;32.55;45.58;100928.03;5093261;28;20052;-72
2023/06/20 10:42:43;;;;;;;14.75;11.45;;;;;;;32.58;45.38;100916.66;5075596;28;20044;-73
2023/06/20 10:45:25;;;;;;;17.02;12.07;;;;;;;32.83;45.65;100920.34;5092339;28;20052;-73
2023/06/20 10:47:56;;;;;;;20.83;12.95;;;;;;;32.74;45.52;100920.09;5067404;28;20044;-73
2023/06/20 10:50:41;;;;;;;16.05;12.27;;;;;;;32.86;45.35;100908.16;5092359;28;20036;-72
2023/06/20 10:53:10;;;;;;;12.60;10.32;;;;;;;33.22;44.39;100918.16;5093066;28;20044;-72
2023/06/20 10:55:39;;;;;;;12.93;10.00;;;;;;;33.71;42.53;100917.75;5093002;28;20048;-73
2023/06/20 10:58:07;;;;;;;11.95;9.68;;;;;;;33.52;43.56;100907.94;5093274;28;20044;-72
2023/06/20 11:00:52;;;;;;;13.70;9.88;;;;;;;33.63;43.26;100907.78;5072733;28;20044;-72
2023/06/20 11:03:25;;;;;;;18.70;11.52;;;;;;;33.88;43.63;100895.94;5073199;28;20052;-75
2023/06/20 11:05:55;;;;;;;15.25;10.43;;;;;;;33.99;42.58;100901.41;5072658;28;20130;-73
2023/06/20 11:08:25;;;;;;;11.98;8.88;;;;;;;34.03;41.59;100892.81;5082128;28;20040;-72
2023/06/20 11:10:54;;;;;;;10.65;8.45;;;;;;;34.16;41.12;100893.00;5092908;28;20055;-74
2023/06/20 11:13:25;;;;;;;10.30;8.38;;;;;;;34.47;40.28;100898.41;5075859;28;20044;-73
2023/06/20 11:15:54;;;;;;;11.02;8.35;;;;;;;34.60;38.98;100892.06;5072943;28;20048;-73
2023/06/20 11:18:23;;;;;;;10.02;8.70;;;;;;;34.31;38.25;100899.94;5091586;28;20052;-72
2023/06/20 11:20:59;;;;;;;15.82;10.98;;;;;;;34.08;41.41;100898.00;5092595;28;20036;-75
2023/06/20 11:23:35;;;;;;;9.13;8.20;;;;;;;34.14;40.80;100887.75;5077921;28;20052;-75
2023/06/20 11:26:04;;;;;;;12.85;8.60;;;;;;;34.38;40.31;100886.84;5072132;28;20056;-75
2023/06/20 11:28:32;;;;;;;10.00;8.18;;;;;;;34.54;39.06;100881.19;5069985;28;20398;-73
2023/06/20 11:31:09;;;;;;;9.93;8.05;;;;;;;34.35;39.96;100887.72;5071346;28;20395;-72